Time;durP1;ratioP1;P1;durP2;ratioP2;P2;SDS_P1;SDS_P2;PMS_P1;PMS_P2;Temp;Humidity;BMP_temperature;BMP_pressure;BME280_temperature;BME280_humidity;BME280_pressure;Samples;Min_cycle;Max_cycle;Signal;HPM_P1;HPM_P2
2023/07/03 00:02:20;;;;;;;10.15;7.05;;;;;;;20.03;53.19;98723.34;5127734;28;20048;-72
2023/07/03 00:04:46;;;;;;;11.63;8.50;;;;;;;20.02;53.23;98709.03;5127670;28;20092;-72
2023/07/03 00:07:14;;;;;;;10.15;7.68;;;;;;;19.75;53.33;98676.91;5127592;28;20050;-72
2023/07/03 00:09:41;;;;;;;10.00;8.00;;;;;;;19.85;53.66;98707.25;5127595;28;20212;-72
2023/07/03 00:12:11;;;;;;;10.40;8.07;;;;;;;20.00;53.35;98724.50;5125618;28;20054;-72
2023/07/03 00:14:38;;;;;;;9.48;7.65;;;;;;;19.96;53.36;98724.97;5127501;28;20050;-72
2023/07/03 00:17:07;;;;;;;11.48;7.75;;;;;;;19.92;53.68;98732.50;5127443;28;20057;-72
2023/07/03 00:19:34;;;;;;;9.65;7.65;;;;;;;19.27;54.02;98647.84;5127687;28;20040;-72
2023/07/03 00:22:01;;;;;;;10.07;8.15;;;;;;;19.94;53.64;98733.19;5127363;28;20048;-72
2023/07/03 00:24:29;;;;;;;11.20;8.93;;;;;;;19.75;53.48;98707.34;5127590;28;20103;-71
2023/07/03 00:26:56;;;;;;;11.30;8.43;;;;;;;19.93;53.63;98736.88;5126121;28;20039;-71
2023/07/03 00:29:25;;;;;;;10.10;7.88;;;;;;;17.83;53.88;98401.25;5127537;28;20053;-72
2023/07/03 00:31:52;;;;;;;11.70;7.63;;;;;;;19.47;54.09;98687.84;5127109;28;20043;-72
2023/07/03 00:34:19;;;;;;;9.90;7.88;;;;;;;19.86;53.75;98734.00;5127011;28;20048;-72
2023/07/03 00:36:46;;;;;;;9.90;8.30;;;;;;;19.90;53.78;98737.22;5127370;28;20039;-72
2023/07/03 00:39:13;;;;;;;10.00;7.80;;;;;;;19.96;53.60;98743.78;5125887;28;20063;-72
2023/07/03 00:41:39;;;;;;;9.95;7.13;;;;;;;19.86;54.01;98742.06;5127001;28;20035;-72
2023/07/03 00:44:09;;;;;;;10.35;8.00;;;;;;;19.89;54.04;98735.53;5127212;28;20043;-72
2023/07/03 00:46:38;;;;;;;10.70;7.25;;;;;;;19.87;54.06;98732.16;5126896;28;20051;-72
2023/07/03 00:49:04;;;;;;;11.05;7.35;;;;;;;19.84;54.25;98729.78;5126685;28;20051;-72
2023/07/03 00:51:32;;;;;;;10.43;8.00;;;;;;;19.82;54.43;98738.00;5125645;28;20035;-72
2023/07/03 00:53:58;;;;;;;9.52;8.13;;;;;;;19.78;54.44;98727.69;5126804;28;20052;-72
2023/07/03 00:56:25;;;;;;;9.55;7.60;;;;;;;19.80;54.69;98737.31;5127031;28;20107;-72
2023/07/03 00:58:52;;;;;;;8.52;7.07;;;;;;;19.79;54.63;98737.44;5126987;28;20036;-72
2023/07/03 01:01:26;;;;;;;10.85;7.72;;;;;;;19.84;54.41;98730.63;5126660;28;20059;-73
2023/07/03 01:03:58;;;;;;;;;;;;;;;19.77;54.92;98726.00;5127157;28;20039;-73
2023/07/03 01:06:32;;;;;;;10.45;7.80;;;;;;;19.70;54.73;98733.84;5125472;28;19977;-71
2023/07/03 01:09:02;;;;;;;10.70;8.05;;;;;;;19.71;54.92;98737.38;5125502;28;20299;-72
2023/07/03 01:11:30;;;;;;;9.85;8.02;;;;;;;19.68;55.21;98732.31;5126743;28;20046;-72
2023/07/03 01:14:02;;;;;;;10.27;8.30;;;;;;;19.70;54.81;98733.84;5126474;28;20044;-72
2023/07/03 01:16:30;;;;;;;8.85;7.13;;;;;;;19.59;55.47;98730.56;5126353;28;20047;-72
2023/07/03 01:19:00;;;;;;;10.88;9.02;;;;;;;19.50;55.44;98714.38;5126572;28;20035;-71
2023/07/03 01:21:35;;;;;;;10.60;9.50;;;;;;;19.65;55.21;98740.69;5126659;28;20039;-72
2023/07/03 01:24:10;;;;;;;10.00;8.88;;;;;;;19.70;55.56;98735.69;5126349;28;20066;-71
2023/07/03 01:26:39;;;;;;;12.70;10.32;;;;;;;19.59;55.54;98734.09;5126337;28;20040;-71
2023/07/03 01:29:08;;;;;;;12.27;9.77;;;;;;;19.51;56.40;98742.94;5126310;28;20051;-72
2023/07/03 01:31:37;;;;;;;14.32;10.20;;;;;;;19.54;56.05;98734.56;5125771;28;20304;-72
2023/07/03 01:34:05;;;;;;;11.50;9.35;;;;;;;19.58;56.27;98737.78;5126288;28;20058;-72
2023/07/03 01:36:34;;;;;;;11.05;7.85;;;;;;;19.42;56.71;98735.81;5126549;28;20047;-71
2023/07/03 01:39:03;;;;;;;9.98;7.35;;;;;;;19.50;56.05;98740.41;5125967;28;20065;-71
2023/07/03 01:41:31;;;;;;;12.20;8.23;;;;;;;19.36;56.46;98719.44;5126236;28;20047;-71
2023/07/03 01:44:00;;;;;;;10.30;7.70;;;;;;;19.30;56.73;98728.97;5126459;28;20047;-72
2023/07/03 01:46:26;;;;;;;8.98;7.72;;;;;;;19.39;56.64;98741.50;5125694;28;20100;-72
2023/07/03 01:48:53;;;;;;;11.50;7.85;;;;;;;19.39;56.51;98744.19;5126160;28;20043;-72
2023/07/03 01:51:28;;;;;;;10.82;8.23;;;;;;;19.36;56.83;98738.25;5126347;28;20050;-73
2023/07/03 01:54:14;;;;;;;9.98;8.05;;;;;;;19.32;57.12;98732.34;5125013;28;20036;-72
2023/07/03 01:56:44;;;;;;;9.15;7.38;;;;;;;19.32;56.99;98742.25;5125341;28;20054;-73
2023/07/03 01:59:17;;;;;;;10.68;8.30;;;;;;;19.33;57.05;98725.97;5126393;28;20054;-73
2023/07/03 02:01:50;;;;;;;9.13;7.35;;;;;;;19.29;57.42;98738.03;5125798;28;20136;-72
2023/07/03 02:04:25;;;;;;;8.88;7.40;;;;;;;19.18;57.38;98733.75;5126034;28;20101;-72
2023/07/03 02:06:53;;;;;;;10.60;8.18;;;;;;;19.31;57.34;98741.41;5125943;28;20097;-72
2023/07/03 02:09:20;;;;;;;9.65;7.75;;;;;;;19.22;57.30;98723.53;5124832;28;20047;-72
2023/07/03 02:11:48;;;;;;;9.50;7.90;;;;;;;19.24;57.15;98734.97;5125571;28;20047;-72
2023/07/03 02:14:16;;;;;;;13.30;8.20;;;;;;;19.24;57.37;98740.34;5124781;28;20319;-72
2023/07/03 02:16:46;;;;;;;8.70;7.78;;;;;;;19.27;57.49;98744.56;5125885;28;20039;-72
2023/07/03 02:19:14;;;;;;;11.20;7.80;;;;;;;19.15;57.95;98739.41;5126172;28;20054;-72
2023/07/03 02:21:43;;;;;;;10.77;8.23;;;;;;;19.16;57.97;98733.06;5125565;28;20115;-72
2023/07/03 02:24:11;;;;;;;11.82;8.77;;;;;;;19.07;57.80;98739.34;5125824;28;20051;-71
2023/07/03 02:26:37;;;;;;;12.90;8.77;;;;;;;18.99;58.07;98747.31;5126062;28;20039;-72
2023/07/03 02:29:04;;;;;;;12.80;7.85;;;;;;;19.01;58.13;98744.47;5125071;28;20063;-72
2023/07/03 02:31:33;;;;;;;9.07;7.72;;;;;;;18.99;58.31;98743.78;5125375;28;20315;-72
2023/07/03 02:33:59;;;;;;;10.75;8.05;;;;;;;19.06;57.67;98751.09;5084961;28;20299;-72
2023/07/03 02:36:29;;;;;;;12.27;9.10;;;;;;;18.87;58.53;98751.22;5088657;28;20059;-72
2023/07/03 02:38:57;;;;;;;11.45;7.78;;;;;;;18.98;58.19;98742.09;5088654;28;20312;-72
2023/07/03 02:41:24;;;;;;;9.90;8.10;;;;;;;19.03;57.70;98748.69;5088638;28;20046;-72
2023/07/03 02:43:50;;;;;;;11.63;8.18;;;;;;;18.75;58.32;98729.13;5088575;28;20125;-71
2023/07/03 02:46:17;;;;;;;9.50;7.68;;;;;;;18.79;58.67;98741.25;5088267;28;20055;-72
2023/07/03 02:48:45;;;;;;;10.75;8.40;;;;;;;18.85;58.65;98754.06;5088760;28;20116;-72
2023/07/03 02:51:12;;;;;;;11.13;8.45;;;;;;;18.79;58.87;98743.91;5087223;28;20049;-72
2023/07/03 02:53:39;;;;;;;10.27;8.32;;;;;;;18.80;59.00;98747.44;5088642;28;20048;-72
2023/07/03 02:56:06;;;;;;;10.95;8.25;;;;;;;18.75;59.40;98742.53;5087181;28;20200;-72
2023/07/03 02:58:33;;;;;;;9.82;7.25;;;;;;;18.76;59.42;98740.69;5087137;28;20040;-72
2023/07/03 03:01:00;;;;;;;10.38;7.88;;;;;;;18.44;59.50;98688.31;5088191;28;20044;-72
2023/07/03 03:03:27;;;;;;;10.15;8.18;;;;;;;18.75;59.67;98736.31;5087088;28;20090;-72
2023/07/03 03:05:56;;;;;;;12.27;8.40;;;;;;;18.85;59.06;98743.31;5088436;28;20071;-72
2023/07/03 03:08:23;;;;;;;11.93;8.38;;;;;;;18.72;59.45;98744.69;5088113;28;20040;-71
2023/07/03 03:10:49;;;;;;;9.70;7.45;;;;;;;18.72;59.47;98739.31;5087792;28;20040;-72
2023/07/03 03:13:16;;;;;;;10.43;8.23;;;;;;;18.73;59.82;98746.38;5086835;28;20056;-71
2023/07/03 03:15:43;;;;;;;12.35;8.65;;;;;;;18.84;59.07;98738.94;5088244;28;20040;-72
2023/07/03 03:18:10;;;;;;;12.00;8.40;;;;;;;18.27;59.28;98664.97;5086814;28;20063;-72
2023/07/03 03:20:37;;;;;;;9.68;8.57;;;;;;;18.75;59.55;98744.38;5088077;28;20111;-72
2023/07/03 03:23:05;;;;;;;11.00;8.43;;;;;;;18.73;59.44;98749.06;5087795;28;20086;-72
2023/07/03 03:25:33;;;;;;;11.52;7.90;;;;;;;18.73;59.71;98741.00;5087505;28;20041;-72
2023/07/03 03:27:59;;;;;;;11.15;9.00;;;;;;;18.81;59.41;98733.03;5087448;28;20052;-72
2023/07/03 03:30:26;;;;;;;11.30;8.50;;;;;;;18.77;59.77;98737.00;5087674;28;20044;-72
2023/07/03 03:32:53;;;;;;;11.95;8.63;;;;;;;18.79;59.46;98741.25;5109342;28;20063;-72
2023/07/03 03:35:19;;;;;;;10.40;7.72;;;;;;;18.75;59.39;98750.59;5128577;28;20288;-72
2023/07/03 03:37:46;;;;;;;13.00;9.50;;;;;;;18.63;60.03;98751.78;5127106;28;20295;-72
2023/07/03 03:40:14;;;;;;;11.90;8.25;;;;;;;18.56;59.99;98756.06;5128413;28;20279;-72
2023/07/03 03:42:41;;;;;;;13.30;8.88;;;;;;;18.65;59.81;98760.53;5128436;28;20047;-71
2023/07/03 03:45:08;;;;;;;12.15;8.73;;;;;;;18.52;60.27;98762.72;5127747;28;20039;-72
2023/07/03 03:47:35;;;;;;;10.77;8.15;;;;;;;18.63;60.01;98759.00;5127168;28;20081;-71
2023/07/03 03:50:02;;;;;;;9.48;8.07;;;;;;;18.58;60.25;98759.44;5128296;27;20093;-71
2023/07/03 03:52:29;;;;;;;11.93;8.50;;;;;;;18.50;60.73;98765.53;5127551;28;20063;-72
2023/07/03 03:54:56;;;;;;;11.05;8.45;;;;;;;18.62;60.25;98760.84;5127916;28;20043;-71
2023/07/03 03:57:24;;;;;;;9.43;7.43;;;;;;;18.51;60.43;98758.31;5127855;28;20051;-71
2023/07/03 03:59:50;;;;;;;10.55;8.45;;;;;;;18.55;60.42;98751.69;5127765;28;20100;-71
2023/07/03 04:02:17;;;;;;;11.00;8.70;;;;;;;18.43;60.61;98758.22;5127727;28;20040;-71
2023/07/03 04:04:44;;;;;;;11.07;7.90;;;;;;;18.50;60.47;98757.47;5127650;28;20093;-71
2023/07/03 04:07:11;;;;;;;9.45;7.88;;;;;;;18.41;60.35;98744.13;5127059;28;20085;-71
2023/07/03 04:09:38;;;;;;;10.55;8.70;;;;;;;18.43;60.32;98763.59;5127205;28;20039;-71
2023/07/03 04:12:05;;;;;;;9.90;7.70;;;;;;;18.54;60.58;98763.44;5127454;28;20092;-71
2023/07/03 04:14:33;;;;;;;9.82;7.70;;;;;;;18.26;61.06;98741.91;5126396;28;20092;-72
2023/07/03 04:17:01;;;;;;;11.60;9.32;;;;;;;18.23;61.12;98747.59;5127147;28;20292;-71
2023/07/03 04:19:29;;;;;;;15.35;9.50;;;;;;;18.28;61.39;98763.22;5127267;28;20226;-71
2023/07/03 04:21:56;;;;;;;10.30;8.85;;;;;;;18.42;61.05;98761.91;5127079;28;20295;-72
2023/07/03 04:24:24;;;;;;;13.02;9.18;;;;;;;18.49;60.85;98768.38;5127547;28;20044;-71
2023/07/03 04:26:54;;;;;;;11.82;8.45;;;;;;;18.36;60.90;98757.13;5127520;28;20096;-71
2023/07/03 04:29:22;;;;;;;12.18;9.32;;;;;;;18.43;60.96;98768.94;5127026;28;20300;-72
2023/07/03 04:31:50;;;;;;;12.32;9.07;;;;;;;18.43;60.64;98767.13;5126705;28;20049;-71
2023/07/03 04:34:16;;;;;;;13.07;9.35;;;;;;;18.48;60.35;98766.66;5126009;28;20084;-72
2023/07/03 04:36:44;;;;;;;14.35;9.00;;;;;;;18.38;61.27;98772.09;5125984;28;20039;-71
2023/07/03 04:39:10;;;;;;;11.48;8.38;;;;;;;18.42;61.33;98776.16;5127016;28;20049;-71
2023/07/03 04:41:37;;;;;;;10.85;8.18;;;;;;;18.43;61.14;98775.16;5126749;28;20210;-71
2023/07/03 04:44:04;;;;;;;11.60;8.25;;;;;;;18.44;61.21;98781.38;5126974;28;20073;-71
2023/07/03 04:46:31;;;;;;;10.10;8.18;;;;;;;18.41;61.08;98787.03;5126579;28;20069;-71
2023/07/03 04:49:03;;;;;;;12.48;9.07;;;;;;;18.02;61.30;98736.22;5126853;28;20052;-71
2023/07/03 04:51:31;;;;;;;11.38;9.50;;;;;;;18.39;61.79;98807.81;5127117;28;20321;-72
2023/07/03 04:53:58;;;;;;;11.45;8.80;;;;;;;18.51;60.92;98807.47;5125593;28;20048;-72
2023/07/03 04:56:25;;;;;;;10.93;8.35;;;;;;;18.41;60.94;98805.81;5126944;28;20040;-71
2023/07/03 04:58:53;;;;;;;10.27;8.30;;;;;;;18.50;60.64;98811.16;5126117;28;20043;-71
2023/07/03 05:01:20;;;;;;;11.80;8.27;;;;;;;18.51;60.48;98812.00;5126349;28;20055;-71
2023/07/03 05:03:46;;;;;;;14.18;8.80;;;;;;;18.59;60.30;98814.81;5126904;28;20050;-71
2023/07/03 05:06:14;;;;;;;9.35;7.97;;;;;;;18.61;60.03;98823.56;5126617;28;20035;-71
2023/07/03 05:08:41;;;;;;;11.02;8.73;;;;;;;18.57;60.21;98828.38;5126551;28;20063;-72
2023/07/03 05:11:08;;;;;;;10.65;8.50;;;;;;;18.67;59.90;98822.13;5125440;28;20039;-72
2023/07/03 05:13:34;;;;;;;10.48;8.48;;;;;;;18.73;59.93;98824.22;5126666;28;20039;-71
2023/07/03 05:16:01;;;;;;;10.82;8.07;;;;;;;18.79;59.86;98827.16;5125407;28;20047;-72
2023/07/03 05:18:28;;;;;;;11.52;9.02;;;;;;;18.85;59.69;98818.50;5125300;28;20238;-72
2023/07/03 05:20:55;;;;;;;10.80;8.63;;;;;;;18.89;59.76;98827.09;5126703;28;20044;-72
2023/07/03 05:23:23;;;;;;;12.18;9.57;;;;;;;18.96;59.46;98817.44;5126349;28;20039;-72
2023/07/03 05:25:49;;;;;;;11.27;8.75;;;;;;;18.51;59.46;98751.13;5126644;28;20043;-71
2023/07/03 05:28:16;;;;;;;13.05;8.82;;;;;;;18.98;59.53;98823.50;5126256;28;20292;-71
2023/07/03 05:30:43;;;;;;;11.82;9.95;;;;;;;19.00;59.92;98824.19;5125232;28;20052;-72
2023/07/03 05:33:10;;;;;;;10.98;9.02;;;;;;;19.05;59.71;98823.75;5125743;28;20055;-71
2023/07/03 05:35:38;;;;;;;11.35;9.23;;;;;;;19.15;59.32;98835.28;5125980;28;20339;-72
2023/07/03 05:38:05;;;;;;;11.27;8.75;;;;;;;19.22;59.03;98829.13;5126268;28;20039;-72
2023/07/03 05:40:33;;;;;;;11.68;9.48;;;;;;;19.26;58.87;98828.84;5126138;28;20203;-72
2023/07/03 05:42:59;;;;;;;12.27;8.90;;;;;;;19.24;59.37;98829.84;5126128;28;20043;-72
2023/07/03 05:45:26;;;;;;;10.75;9.32;;;;;;;19.31;59.04;98835.44;5126082;28;20051;-72
2023/07/03 05:47:53;;;;;;;11.73;8.93;;;;;;;19.39;59.30;98832.88;5124853;28;20040;-72
2023/07/03 05:50:19;;;;;;;11.63;9.57;;;;;;;19.44;58.90;98830.56;5125802;28;20173;-71
2023/07/03 05:52:46;;;;;;;11.80;9.55;;;;;;;19.53;59.08;98839.53;5125664;28;20040;-72
2023/07/03 05:55:13;;;;;;;11.27;9.23;;;;;;;19.44;59.17;98816.28;5125762;28;20300;-71
2023/07/03 05:57:41;;;;;;;10.95;7.93;;;;;;;19.64;58.74;98838.47;5126315;28;20039;-73
2023/07/03 06:00:13;;;;;;;13.35;9.68;;;;;;;19.68;58.34;98843.38;5125742;28;20315;-72
2023/07/03 06:02:40;;;;;;;11.80;8.32;;;;;;;19.76;58.63;98843.44;5125912;28;20040;-72
2023/07/03 06:05:08;;;;;;;10.15;8.23;;;;;;;19.83;57.68;98849.09;5125649;28;20043;-71
2023/07/03 06:07:35;;;;;;;9.85;7.60;;;;;;;19.85;57.63;98844.41;5125913;28;20096;-72
2023/07/03 06:10:01;;;;;;;9.88;7.88;;;;;;;19.89;57.00;98855.69;5127467;28;20085;-72
2023/07/03 06:12:29;;;;;;;13.38;8.23;;;;;;;19.88;56.62;98830.63;5128649;28;20231;-72
2023/07/03 06:14:58;;;;;;;10.45;7.78;;;;;;;20.04;56.98;98849.59;5129422;28;20111;-73
2023/07/03 06:17:25;;;;;;;10.23;8.32;;;;;;;20.15;56.55;98852.03;5129994;28;20103;-73
2023/07/03 06:19:51;;;;;;;11.18;7.75;;;;;;;20.17;56.34;98847.34;5130071;28;20043;-72
2023/07/03 06:22:19;;;;;;;12.38;8.07;;;;;;;20.26;56.15;98850.09;5130062;28;20083;-73
2023/07/03 06:24:46;;;;;;;10.05;8.60;;;;;;;20.29;56.36;98857.88;5129719;28;20054;-73
2023/07/03 06:27:14;;;;;;;11.05;8.05;;;;;;;20.37;56.28;98848.00;5129470;28;20039;-72
2023/07/03 06:29:41;;;;;;;10.77;8.85;;;;;;;20.41;56.24;98848.53;5129710;28;20051;-72
2023/07/03 06:32:11;;;;;;;9.48;7.75;;;;;;;20.48;56.06;98853.09;5129552;28;20200;-73
2023/07/03 06:34:39;;;;;;;10.13;8.23;;;;;;;20.50;55.89;98858.34;5128628;28;20040;-73
2023/07/03 06:37:06;;;;;;;10.00;8.02;;;;;;;20.60;55.82;98855.53;5129132;28;20338;-72
2023/07/03 06:39:33;;;;;;;11.00;9.15;;;;;;;20.53;55.74;98830.25;5129363;28;20237;-73
2023/07/03 06:41:59;;;;;;;10.80;8.23;;;;;;;20.71;55.46;98858.78;5129469;28;20035;-72
2023/07/03 06:44:27;;;;;;;11.40;8.45;;;;;;;20.72;55.22;98857.78;5128073;28;20051;-72
2023/07/03 06:46:54;;;;;;;10.95;8.23;;;;;;;20.58;55.52;98812.63;5128550;28;20039;-73
2023/07/03 06:49:24;;;;;;;12.23;8.85;;;;;;;20.95;55.43;98855.34;5128765;28;20084;-73
2023/07/03 06:51:51;;;;;;;11.57;8.52;;;;;;;20.97;55.29;98852.50;5129250;28;20052;-73
2023/07/03 06:54:18;;;;;;;11.55;8.48;;;;;;;21.05;55.10;98857.94;5128051;28;20072;-73
2023/07/03 06:56:45;;;;;;;10.38;8.40;;;;;;;21.06;54.63;98848.84;5129069;28;20051;-73
2023/07/03 06:59:12;;;;;;;12.80;9.40;;;;;;;20.97;54.32;98839.88;5128903;28;20039;-73
2023/07/03 07:01:40;;;;;;;11.88;9.23;;;;;;;21.18;53.89;98865.56;5128541;28;20085;-73
2023/07/03 07:04:07;;;;;;;11.77;9.27;;;;;;;21.16;53.55;98871.13;5128855;28;20196;-73
2023/07/03 07:06:35;;;;;;;12.52;9.38;;;;;;;21.24;53.39;98844.19;5129047;28;20061;-73
2023/07/03 07:09:03;;;;;;;10.88;8.50;;;;;;;21.34;53.20;98844.03;5128772;28;20096;-73
2023/07/03 07:11:31;;;;;;;12.43;9.20;;;;;;;21.35;53.07;98848.44;5128477;28;20035;-72
2023/07/03 07:14:00;;;;;;;11.82;8.98;;;;;;;21.33;52.50;98818.94;5127238;28;20097;-72
2023/07/03 07:16:30;;;;;;;11.85;9.55;;;;;;;21.57;52.51;98837.00;5128333;28;20044;-73
2023/07/03 07:19:00;;;;;;;10.52;8.38;;;;;;;21.70;52.13;98844.59;5128834;28;20039;-73
2023/07/03 07:21:27;;;;;;;11.95;9.85;;;;;;;21.65;51.59;98839.72;5128381;28;20051;-73
2023/07/03 07:23:58;;;;;;;11.57;9.68;;;;;;;21.63;51.82;98840.88;5128467;28;20295;-72
2023/07/03 07:26:26;;;;;;;12.27;9.90;;;;;;;21.60;52.01;98844.75;5128418;28;20039;-72
2023/07/03 07:28:52;;;;;;;12.43;9.75;;;;;;;21.68;51.89;98846.63;5128764;28;20048;-72
2023/07/03 07:31:20;;;;;;;14.52;10.52;;;;;;;21.72;51.64;98851.50;5128441;28;20107;-72
2023/07/03 07:33:47;;;;;;;12.20;10.18;;;;;;;21.76;51.64;98854.72;5127856;28;20112;-73
2023/07/03 07:36:14;;;;;;;11.95;10.07;;;;;;;21.82;51.46;98851.38;5128378;28;20211;-73
2023/07/03 07:38:41;;;;;;;12.88;9.82;;;;;;;21.81;51.74;98855.09;5128111;28;20051;-73
2023/07/03 07:41:09;;;;;;;12.18;9.90;;;;;;;21.82;51.74;98862.16;5127632;28;20065;-72
2023/07/03 07:43:36;;;;;;;11.88;9.40;;;;;;;21.94;51.72;98852.72;5126588;28;20080;-73
2023/07/03 07:46:03;;;;;;;13.20;10.13;;;;;;;22.19;51.54;98839.22;5127513;28;20035;-73
2023/07/03 07:48:31;;;;;;;11.48;9.35;;;;;;;22.34;51.10;98841.03;5127326;28;20040;-72
2023/07/03 07:50:58;;;;;;;10.57;8.70;;;;;;;22.39;51.06;98833.28;5127885;27;20063;-72
2023/07/03 07:53:26;;;;;;;11.30;9.30;;;;;;;22.55;51.16;98812.72;5127456;28;20065;-73
2023/07/03 07:55:52;;;;;;;12.40;9.43;;;;;;;22.75;50.38;98832.06;5127840;28;20066;-73
2023/07/03 07:58:20;;;;;;;10.65;9.45;;;;;;;22.68;50.31;98831.91;5127775;28;20048;-72
2023/07/03 08:00:52;;;;;;;14.00;9.95;;;;;;;22.96;49.73;98840.41;5126654;28;20230;-72
2023/07/03 08:03:19;;;;;;;13.75;10.95;;;;;;;22.62;49.57;98852.34;5127605;28;20039;-72
2023/07/03 08:05:45;;;;;;;11.98;9.50;;;;;;;22.67;49.65;98839.16;5127277;28;20052;-72
2023/07/03 08:08:12;;;;;;;12.88;9.90;;;;;;;22.59;49.26;98849.16;5127568;28;20089;-73
2023/07/03 08:10:40;;;;;;;13.30;10.65;;;;;;;22.71;48.81;98851.31;5126476;28;20040;-73
2023/07/03 08:13:07;;;;;;;13.02;10.63;;;;;;;22.25;48.67;98781.84;5126203;28;20066;-73
2023/07/03 08:15:35;;;;;;;11.48;9.70;;;;;;;22.96;47.88;98833.13;5127718;28;20035;-73
2023/07/03 08:18:03;;;;;;;14.45;10.73;;;;;;;22.99;47.76;98837.34;5127610;28;20047;-73
2023/07/03 08:20:30;;;;;;;12.82;9.48;;;;;;;23.32;47.64;98836.19;5127343;28;20048;-72
2023/07/03 08:22:56;;;;;;;14.05;10.57;;;;;;;23.40;47.15;98839.84;5127242;28;20190;-73
2023/07/03 08:25:23;;;;;;;12.88;10.77;;;;;;;23.50;46.40;98829.66;5126432;28;20036;-73
2023/07/03 08:27:50;;;;;;;15.10;11.23;;;;;;;23.50;46.22;98833.19;5126161;28;20051;-73
2023/07/03 08:30:17;;;;;;;13.35;11.15;;;;;;;23.46;45.80;98836.44;5127401;28;20047;-73
2023/07/03 08:32:45;;;;;;;13.48;10.73;;;;;;;23.28;46.24;98842.97;5126269;28;20250;-73
2023/07/03 08:35:11;;;;;;;14.50;10.63;;;;;;;23.31;46.43;98836.38;5126908;28;20055;-72
2023/07/03 08:37:38;;;;;;;15.52;10.95;;;;;;;23.55;46.30;98836.19;5126998;28;20044;-73
2023/07/03 08:40:07;;;;;;;11.85;10.23;;;;;;;23.19;46.40;98771.00;5126699;28;20039;-73
2023/07/03 08:42:38;;;;;;;12.02;10.07;;;;;;;23.48;45.79;98848.75;5126995;28;20275;-73
2023/07/03 08:45:09;;;;;;;14.57;10.98;;;;;;;23.42;46.13;98843.22;5125710;28;20041;-73
2023/07/03 08:47:37;;;;;;;11.90;9.93;;;;;;;23.52;45.72;98841.97;5126812;28;20051;-73
2023/07/03 08:50:07;;;;;;;12.73;10.20;;;;;;;23.49;45.45;98828.81;5126503;28;20275;-73
2023/07/03 08:52:38;;;;;;;16.40;11.18;;;;;;;23.39;45.79;98846.28;5126529;28;20043;-73
2023/07/03 08:55:08;;;;;;;12.93;10.82;;;;;;;23.31;45.28;98844.47;5126837;28;20093;-72
2023/07/03 08:57:38;;;;;;;14.45;10.98;;;;;;;23.27;45.36;98837.75;5126644;28;20055;-73
2023/07/03 09:00:10;;;;;;;11.80;9.95;;;;;;;23.52;44.86;98833.84;5126857;28;20047;-72
2023/07/03 09:02:45;;;;;;;13.85;10.75;;;;;;;22.92;44.88;98707.50;5125563;28;20039;-73
2023/07/03 09:05:27;;;;;;;13.70;10.82;;;;;;;23.81;44.43;98852.06;5126874;28;20063;-73
2023/07/03 09:07:59;;;;;;;13.52;10.77;;;;;;;24.12;43.53;98845.75;5126811;28;20047;-73
2023/07/03 09:10:33;;;;;;;14.90;11.93;;;;;;;24.02;43.53;98850.56;5126758;28;20047;-72
2023/07/03 09:13:03;;;;;;;;;;;;;;;24.35;43.63;98854.66;5126907;28;20291;-72
2023/07/03 09:15:41;;;;;;;13.68;10.65;;;;;;;24.42;42.75;98850.19;5125403;28;19915;-73
2023/07/03 09:18:14;;;;;;;13.02;10.77;;;;;;;24.62;42.74;98853.19;5126533;28;20176;-73
2023/07/03 09:20:43;;;;;;;14.85;11.73;;;;;;;24.47;42.28;98849.63;5126505;28;20300;-73
2023/07/03 09:23:21;;;;;;;14.52;10.40;;;;;;;24.64;41.31;98846.56;5125084;28;20311;-73
2023/07/03 09:25:54;;;;;;;12.75;10.95;;;;;;;24.79;41.37;98838.47;5125129;28;20039;-73
2023/07/03 09:28:21;;;;;;;12.40;10.83;;;;;;;25.09;41.94;98838.47;5125945;28;20043;-72
2023/07/03 09:30:48;;;;;;;15.32;11.60;;;;;;;25.01;39.74;98833.97;5126437;28;20408;-73
2023/07/03 09:33:16;;;;;;;13.18;10.43;;;;;;;24.73;39.72;98760.63;5125039;28;20051;-73
2023/07/03 09:35:48;;;;;;;13.73;10.73;;;;;;;24.44;39.69;98725.41;5125786;28;20043;-72
2023/07/03 09:38:17;;;;;;;12.70;10.77;;;;;;;25.00;39.73;98832.28;5126105;28;20071;-72
2023/07/03 09:40:48;;;;;;;12.25;9.95;;;;;;;25.14;40.25;98798.91;5126107;28;20054;-73
2023/07/03 09:43:19;;;;;;;12.88;9.70;;;;;;;25.20;40.25;98825.25;5126020;28;20047;-73
2023/07/03 09:45:46;;;;;;;13.50;10.35;;;;;;;25.52;40.36;98829.38;5129016;28;20040;-73
2023/07/03 09:48:19;;;;;;;12.95;10.50;;;;;;;25.45;39.33;98824.94;5129086;28;20151;-73
2023/07/03 09:50:47;;;;;;;12.57;10.40;;;;;;;25.53;39.53;98827.53;5130283;28;20110;-73
2023/07/03 09:53:19;;;;;;;14.57;9.88;;;;;;;25.35;38.65;98835.25;5129879;28;20181;-72
2023/07/03 09:55:46;;;;;;;11.93;10.00;;;;;;;25.25;38.27;98822.81;5129995;28;20218;-73
2023/07/03 09:58:15;;;;;;;10.98;8.63;;;;;;;25.23;39.43;98826.75;5130021;28;20052;-73
2023/07/03 10:00:48;;;;;;;12.68;10.13;;;;;;;25.28;38.96;98827.00;5129792;28;20035;-73
2023/07/03 10:03:23;;;;;;;12.00;9.43;;;;;;;25.25;39.43;98827.38;5112240;28;20296;-73
2023/07/03 10:05:52;;;;;;;11.70;9.75;;;;;;;25.08;39.05;98825.94;5129839;28;20078;-73
2023/07/03 10:08:22;;;;;;;12.73;10.73;;;;;;;25.26;39.17;98818.22;5129716;28;20132;-73
2023/07/03 10:10:50;;;;;;;10.70;9.13;;;;;;;25.41;38.08;98818.22;5128739;28;20202;-73
2023/07/03 10:13:26;;;;;;;12.18;9.40;;;;;;;25.41;38.04;98820.91;5129825;28;20043;-72
2023/07/03 10:15:55;;;;;;;13.25;10.07;;;;;;;25.20;36.68;98824.41;5129805;28;20051;-72
2023/07/03 10:18:27;;;;;;;12.30;10.10;;;;;;;25.27;36.92;98828.03;5129420;28;20039;-73
2023/07/03 10:20:56;;;;;;;11.07;9.23;;;;;;;24.58;37.09;98728.09;5128392;28;20122;-73
2023/07/03 10:23:26;;;;;;;11.20;9.20;;;;;;;24.70;37.32;98720.38;5128385;28;20295;-73
2023/07/03 10:25:57;;;;;;;13.35;11.23;;;;;;;25.49;37.25;98815.38;5129614;28;20175;-72
2023/07/03 10:28:28;;;;;;;14.88;11.77;;;;;;;25.64;38.08;98821.56;5129573;28;20048;-72
2023/07/03 10:31:02;;;;;;;13.82;10.18;;;;;;;25.56;35.99;98821.69;5129518;28;20036;-73
2023/07/03 10:33:33;;;;;;;13.30;9.52;;;;;;;25.42;35.63;98811.75;5128037;28;20055;-73
2023/07/03 10:36:06;;;;;;;12.98;9.60;;;;;;;25.36;35.73;98817.94;5129662;28;20077;-73
2023/07/03 10:38:42;;;;;;;12.80;9.52;;;;;;;24.96;35.78;98761.34;5129354;28;20056;-73
2023/07/03 10:41:16;;;;;;;12.60;8.95;;;;;;;25.24;37.42;98821.13;5128400;28;20296;-73
2023/07/03 10:43:47;;;;;;;10.63;8.85;;;;;;;25.36;35.81;98817.94;5129219;28;20056;-72
2023/07/03 10:46:26;;;;;;;11.63;8.85;;;;;;;25.35;36.00;98830.66;5128901;28;20043;-73
2023/07/03 10:48:57;;;;;;;11.68;9.40;;;;;;;25.29;35.59;98820.56;5129019;28;20104;-73
2023/07/03 10:51:38;;;;;;;16.88;9.38;;;;;;;25.32;35.28;98812.06;5129102;28;20107;-73
2023/07/03 10:54:13;;;;;;;12.25;9.23;;;;;;;25.24;35.83;98815.69;5129226;28;20043;-73
2023/07/03 10:56:45;;;;;;;13.20;9.70;;;;;;;25.34;35.73;98828.97;5128420;28;20049;-73
2023/07/03 10:59:19;;;;;;;13.15;9.57;;;;;;;25.45;35.37;98830.34;5129017;28;20226;-73
2023/07/03 11:01:52;;;;;;;14.40;10.00;;;;;;;25.50;35.41;98817.88;5128989;28;20040;-73
2023/07/03 11:04:22;;;;;;;11.15;8.98;;;;;;;25.46;35.46;98822.03;5127774;28;20051;-72
2023/07/03 11:07:03;;;;;;;11.23;8.43;;;;;;;25.37;33.93;98828.59;5128641;28;20105;-73
2023/07/03 11:09:40;;;;;;;13.35;9.55;;;;;;;25.25;33.82;98811.97;5128756;28;20181;-72
2023/07/03 11:12:15;;;;;;;11.43;9.32;;;;;;;25.21;33.93;98813.38;5128736;28;20101;-72
2023/07/03 11:14:53;;;;;;;12.35;9.25;;;;;;;25.28;33.44;98813.44;5128070;28;20041;-73
2023/07/03 11:17:29;;;;;;;11.60;8.63;;;;;;;25.46;33.22;98813.03;5128841;28;20047;-73
2023/07/03 11:20:04;;;;;;;10.90;8.35;;;;;;;25.68;33.27;98819.31;5128889;27;20067;-73
2023/07/03 11:22:46;;;;;;;10.05;7.68;;;;;;;25.57;33.24;98817.97;5127980;28;20089;-73
2023/07/03 11:25:21;;;;;;;9.82;8.55;;;;;;;25.68;33.37;98808.47;5128433;28;20062;-73
2023/07/03 11:27:57;;;;;;;11.88;9.52;;;;;;;25.62;35.07;98817.38;5128394;28;20043;-74
2023/07/03 11:30:25;;;;;;;11.68;9.02;;;;;;;25.62;35.15;98806.53;5128357;28;20058;-73
2023/07/03 11:32:53;;;;;;;12.73;9.65;;;;;;;25.67;34.91;98814.91;5128012;28;20051;-74